Time;durP1;ratioP1;P1;durP2;ratioP2;P2;SDS_P1;SDS_P2;PMS_P1;PMS_P2;Temp;Humidity;BMP_temperature;BMP_pressure;BME280_temperature;BME280_humidity;BME280_pressure;Samples;Min_cycle;Max_cycle;Signal;HPM_P1;HPM_P2
2022/08/13 00:02:15;;;;;;;11.27;4.10;;;;;;;18.07;50.88;101492.34;5076488;28;20436;-45
2022/08/13 00:04:44;;;;;;;12.45;4.38;;;;;;;18.10;51.28;101488.03;5075735;28;20024;-44
2022/08/13 00:07:09;;;;;;;9.65;4.30;;;;;;;18.02;51.89;101487.06;5075895;28;20551;-44
2022/08/13 00:09:41;;;;;;;7.50;4.10;;;;;;;17.90;52.49;101489.56;5076336;28;20103;-45
2022/08/13 00:15:20;;;;;;;12.60;4.22;;;;;;;17.90;52.34;101494.75;5076064;28;20056;-46
2022/08/13 00:17:51;;;;;;;8.75;4.45;;;;;;;17.88;52.93;101494.75;5076089;28;20017;-45
2022/08/13 00:20:23;;;;;;;8.20;3.90;;;;;;;17.71;53.68;101491.97;5075228;28;20036;-45
2022/08/13 00:22:49;;;;;;;9.63;4.60;;;;;;;17.69;53.38;101493.69;5076124;28;20020;-45
2022/08/13 00:25:16;;;;;;;10.57;4.60;;;;;;;17.63;53.31;101488.41;5075603;28;20085;-45
2022/08/13 00:27:47;;;;;;;8.97;4.43;;;;;;;17.56;53.40;101487.47;5075081;28;20476;-45
2022/08/13 00:30:15;;;;;;;8.80;5.00;;;;;;;17.54;53.59;101493.53;5075491;28;20279;-47
2022/08/13 00:32:43;;;;;;;11.05;4.35;;;;;;;17.58;54.42;101495.31;5075299;28;20025;-45
2022/08/13 00:35:09;;;;;;;7.78;4.40;;;;;;;17.53;54.52;101497.88;5075746;28;20418;-46
2022/08/13 00:37:37;;;;;;;8.75;4.50;;;;;;;17.51;54.76;101496.09;5075833;28;20082;-44
2022/08/13 00:40:04;;;;;;;7.30;4.35;;;;;;;17.48;54.72;101493.44;5075102;28;20025;-46
2022/08/13 00:42:29;;;;;;;7.57;4.67;;;;;;;17.40;55.34;101489.03;5075451;28;20028;-48
2022/08/13 00:44:54;;;;;;;12.07;4.82;;;;;;;17.36;55.19;101489.84;5075416;28;20291;-46
2022/08/13 00:50:08;;;;;;;6.65;4.53;;;;;;;17.26;55.60;101490.59;5046741;28;20090;-45
2022/08/13 00:52:39;;;;;;;9.75;5.43;;;;;;;17.22;55.37;101497.50;5075437;28;20087;-44
2022/08/13 00:55:08;;;;;;;10.50;5.18;;;;;;;17.25;55.13;101496.69;5074457;28;20028;-45
2022/08/13 00:57:34;;;;;;;7.60;5.43;;;;;;;17.19;56.29;101496.59;5075431;28;20033;-45
2022/08/13 01:00:07;;;;;;;9.32;4.78;;;;;;;17.17;55.43;101498.28;5075473;28;20020;-45
2022/08/13 01:02:32;;;;;;;8.43;5.13;;;;;;;17.09;56.17;101496.47;5074522;28;20422;-45
2022/08/13 01:04:57;;;;;;;7.25;5.00;;;;;;;17.06;56.41;101496.41;5075353;28;20020;-44
2022/08/13 01:07:24;;;;;;;9.60;5.30;;;;;;;17.05;56.32;101502.47;5074965;28;20105;-46
2022/08/13 01:09:50;;;;;;;8.57;5.15;;;;;;;16.98;56.68;101495.44;5074400;28;20475;-45
2022/08/13 01:12:16;;;;;;;11.55;5.65;;;;;;;16.93;57.26;101497.97;5075056;28;20111;-46
2022/08/13 01:14:43;;;;;;;7.65;5.43;;;;;;;16.86;57.49;101493.53;5074552;28;20020;-46
2022/08/13 01:17:08;;;;;;;8.57;5.77;;;;;;;16.86;57.13;101497.84;5075038;28;20025;-46
2022/08/13 01:19:36;;;;;;;10.00;6.53;;;;;;;16.84;57.27;101496.97;5074906;28;20279;-45
2022/08/13 01:22:03;;;;;;;10.13;6.45;;;;;;;16.79;57.08;101491.69;5074251;28;20030;-44
2022/08/13 01:24:28;;;;;;;7.83;5.70;;;;;;;16.77;57.35;101498.56;5074515;28;20402;-45
2022/08/13 01:26:57;;;;;;;10.00;5.28;;;;;;;16.76;57.64;101492.50;5075016;28;20033;-45
2022/08/13 01:29:23;;;;;;;10.85;5.90;;;;;;;16.68;57.99;101499.34;5073967;28;20025;-44
2022/08/13 01:31:51;;;;;;;9.73;5.65;;;;;;;16.65;58.14;101499.28;5074960;28;20024;-46
2022/08/13 01:34:17;;;;;;;11.15;5.97;;;;;;;16.67;57.94;101502.78;5074451;28;20518;-45
2022/08/13 01:36:43;;;;;;;8.73;5.87;;;;;;;16.58;57.89;101503.53;5073881;28;20029;-44
2022/08/13 01:39:10;;;;;;;9.70;5.80;;;;;;;16.58;58.02;101502.66;5074479;28;20035;-46
2022/08/13 01:41:36;;;;;;;10.65;6.07;;;;;;;16.55;58.08;101505.19;5074743;28;20115;-48
2022/08/13 01:44:05;;;;;;;11.32;6.22;;;;;;;16.51;58.58;101506.00;5073939;28;20107;-44
2022/08/13 01:52:07;;;;;;;8.65;5.85;;;;;;;16.31;59.79;101496.16;5073817;28;20097;-44
2022/08/13 01:54:35;;;;;;;9.63;6.22;;;;;;;16.21;60.03;101496.88;5074200;28;20448;-44
2022/08/13 01:57:03;;;;;;;8.77;6.15;;;;;;;16.21;59.75;101499.47;5073584;28;20027;-45
2022/08/13 01:59:29;;;;;;;10.40;6.65;;;;;;;16.12;59.72;101498.44;5073932;28;20028;-44
2022/08/13 02:01:55;;;;;;;13.63;6.90;;;;;;;16.17;59.96;101501.13;5074043;28;20029;-46
2022/08/13 02:04:21;;;;;;;12.30;6.65;;;;;;;16.18;59.52;101491.59;5073314;28;20107;-45
2022/08/13 02:06:48;;;;;;;9.05;6.57;;;;;;;16.21;60.88;101497.72;5073578;28;20095;-44
2022/08/13 02:09:13;;;;;;;9.77;6.30;;;;;;;16.17;60.73;101489.88;5073554;28;20525;-45
2022/08/13 02:11:39;;;;;;;9.63;6.13;;;;;;;16.10;60.21;101494.97;5073220;28;20274;-44
2022/08/13 02:14:05;;;;;;;7.45;6.00;;;;;;;16.09;60.84;101492.34;5073950;28;20027;-44
2022/08/13 02:16:32;;;;;;;9.98;6.50;;;;;;;15.97;61.34;101498.16;5073452;28;20080;-49
2022/08/13 02:18:57;;;;;;;9.50;6.40;;;;;;;15.86;61.35;101495.38;5073271;28;20051;-46
2022/08/13 02:21:25;;;;;;;9.15;6.82;;;;;;;15.79;61.81;101489.19;5073641;28;20464;-44
2022/08/13 02:23:56;;;;;;;10.73;7.88;;;;;;;15.66;62.11;101491.50;5073794;28;20028;-46
2022/08/13 02:26:27;;;;;;;9.55;7.18;;;;;;;15.63;61.74;101492.34;5072770;28;20064;-44
2022/08/13 02:28:54;;;;;;;8.73;6.25;;;;;;;15.66;62.24;101495.00;5073526;28;20043;-45
2022/08/13 02:31:21;;;;;;;8.57;7.25;;;;;;;15.62;62.30;101493.16;5073573;28;20075;-48
2022/08/13 02:33:46;;;;;;;10.38;7.25;;;;;;;15.56;62.23;101490.47;5072915;28;20048;-47
2022/08/13 02:36:12;;;;;;;11.02;6.75;;;;;;;15.57;62.36;101502.59;5073293;28;20056;-44
2022/08/13 02:38:37;;;;;;;12.80;7.03;;;;;;;15.57;62.67;101492.22;5073605;28;20040;-46
2022/08/13 02:43:48;;;;;;;9.00;6.88;;;;;;;15.56;62.52;101491.34;5073928;28;20036;-44
2022/08/13 02:46:15;;;;;;;10.25;6.82;;;;;;;15.51;63.01;101505.09;5072050;28;20049;-44
2022/08/13 02:48:41;;;;;;;11.98;6.82;;;;;;;15.47;62.77;101494.63;5073305;28;20103;-45
2022/08/13 02:51:06;;;;;;;11.98;6.88;;;;;;;15.47;62.44;101485.97;5073292;28;20041;-46
2022/08/13 02:53:32;;;;;;;11.18;7.63;;;;;;;15.44;62.76;101492.00;5072278;28;20040;-44
2022/08/13 02:55:59;;;;;;;10.25;7.00;;;;;;;15.44;63.03;101499.78;5073081;28;20060;-45
2022/08/13 02:58:26;;;;;;;9.63;7.00;;;;;;;15.39;63.42;101493.63;5073032;28;20030;-46
2022/08/13 03:00:52;;;;;;;12.30;7.18;;;;;;;15.38;63.16;101494.47;5072580;28;20047;-45
2022/08/13 03:03:19;;;;;;;10.90;7.65;;;;;;;15.37;63.05;101500.47;5072941;28;20020;-45
2022/08/13 03:05:44;;;;;;;19.02;7.55;;;;;;;15.38;62.96;101501.38;5073285;28;20055;-44
2022/08/13 03:08:11;;;;;;;11.18;7.07;;;;;;;15.29;63.17;101492.53;5072150;28;20056;-45
2022/08/13 03:10:39;;;;;;;9.98;7.50;;;;;;;15.28;63.51;101497.72;5072961;28;20024;-45
2022/08/13 03:13:16;;;;;;;9.77;6.45;;;;;;;15.26;63.50;101499.38;5072952;28;20512;-44
2022/08/13 03:15:44;;;;;;;11.73;7.38;;;;;;;15.22;63.62;101494.97;5072392;28;20063;-45
2022/08/13 03:18:09;;;;;;;;;;;;;;;15.34;60.91;101504.72;5072258;28;20020;-45
2022/08/13 03:20:35;;;;;;;8.75;7.13;;;;;;;15.14;63.73;101493.13;5072940;28;20382;-46
2022/08/13 03:23:01;;;;;;;12.40;7.78;;;;;;;15.11;63.94;101497.38;5072109;28;20016;-46
2022/08/13 03:25:29;;;;;;;9.15;7.20;;;;;;;15.08;64.28;101500.78;5072518;28;20476;-44
2022/08/13 03:27:54;;;;;;;12.88;7.68;;;;;;;15.02;64.10;101495.44;5072846;28;20383;-44
2022/08/13 03:30:22;;;;;;;12.43;8.20;;;;;;;15.02;64.18;101495.44;5072013;28;20491;-46
2022/08/13 03:32:50;;;;;;;13.45;8.20;;;;;;;15.00;64.74;101504.03;5072810;28;20021;-45
2022/08/13 03:35:18;;;;;;;9.55;7.82;;;;;;;14.96;64.92;101497.91;5072341;28;20051;-46
2022/08/13 03:37:48;;;;;;;15.45;8.27;;;;;;;14.93;64.85;101498.69;5072627;28;20107;-45
2022/08/13 03:40:15;;;;;;;11.75;8.07;;;;;;;14.87;64.74;101497.69;5072574;28;20017;-48
2022/08/13 03:42:42;;;;;;;12.18;8.40;;;;;;;14.91;64.67;101499.50;5072119;28;20082;-44
2022/08/13 03:45:09;;;;;;;9.18;7.72;;;;;;;14.78;65.40;101504.44;5072395;28;20064;-44
2022/08/13 03:47:35;;;;;;;10.07;8.00;;;;;;;14.79;65.64;101503.56;5072723;28;20036;-46
2022/08/13 03:50:03;;;;;;;12.18;7.72;;;;;;;14.73;65.64;101499.97;5071774;28;20024;-44
2022/08/13 03:52:30;;;;;;;9.52;7.93;;;;;;;14.69;65.83;101493.81;5072483;28;20107;-46
2022/08/13 03:54:56;;;;;;;9.20;7.97;;;;;;;14.69;66.04;101498.16;5072575;28;20371;-45
2022/08/13 03:57:22;;;;;;;10.75;8.57;;;;;;;14.66;65.84;101496.38;5071636;28;20467;-45
2022/08/13 03:59:48;;;;;;;11.68;7.90;;;;;;;14.57;66.68;101498.72;5072539;28;20021;-47
2022/08/13 04:02:17;;;;;;;14.27;8.20;;;;;;;14.58;66.49;101495.28;5072263;28;20074;-48
2022/08/13 04:04:46;;;;;;;11.80;8.27;;;;;;;14.46;67.68;101498.44;5071525;28;20039;-46
2022/08/13 04:07:14;;;;;;;10.13;8.13;;;;;;;14.41;67.40;101498.34;5072292;28;20028;-46
2022/08/13 04:09:40;;;;;;;15.10;8.77;;;;;;;14.28;67.91;101491.09;5072549;28;20020;-43
2022/08/13 04:12:09;;;;;;;9.25;7.60;;;;;;;14.41;68.33;101495.75;5071467;28;20086;-46
2022/08/13 04:14:34;;;;;;;12.07;8.13;;;;;;;14.33;68.23;101490.38;5072398;28;20089;-46
2022/08/13 04:17:00;;;;;;;11.30;8.57;;;;;;;14.30;68.33;101494.63;5072136;28;20029;-47
2022/08/13 04:19:26;;;;;;;10.15;8.18;;;;;;;14.31;68.14;101497.22;5071235;28;20028;-48
2022/08/13 04:21:52;;;;;;;13.87;8.50;;;;;;;14.31;69.05;101496.38;5072536;28;20032;-48
2022/08/13 04:24:18;;;;;;;10.73;7.93;;;;;;;14.34;68.88;101493.84;5071886;28;20035;-47
2022/08/13 04:26:45;;;;;;;9.73;8.20;;;;;;;14.39;69.44;101494.81;5071672;28;20027;-48
2022/08/13 04:29:11;;;;;;;14.10;8.27;;;;;;;14.46;68.90;101501.94;5072840;28;20028;-46
2022/08/13 04:31:37;;;;;;;10.07;7.80;;;;;;;14.50;69.24;101505.47;5075151;28;20035;-44
2022/08/13 04:34:02;;;;;;;8.98;7.93;;;;;;;14.50;69.06;101508.06;5075809;28;20099;-45
2022/08/13 04:36:27;;;;;;;11.55;8.15;;;;;;;14.43;68.46;101507.03;5075632;28;20404;-48
2022/08/13 04:38:53;;;;;;;13.48;7.97;;;;;;;14.40;68.06;101506.97;5075163;28;20780;-44
2022/08/13 04:41:18;;;;;;;9.73;7.68;;;;;;;14.38;68.48;101510.34;5075493;28;20016;-45
2022/08/13 04:43:43;;;;;;;11.20;7.78;;;;;;;14.40;68.11;101512.16;5075612;28;20017;-47
2022/08/13 04:46:10;;;;;;;10.45;8.45;;;;;;;14.36;68.81;101502.53;5074529;28;20068;-48
2022/08/13 04:48:35;;;;;;;10.20;7.18;;;;;;;14.33;68.60;101502.44;5075400;28;20039;-45
2022/08/13 04:51:01;;;;;;;11.43;8.00;;;;;;;14.41;68.35;101513.00;5075790;28;20024;-44
2022/08/13 04:53:35;;;;;;;9.82;7.80;;;;;;;14.43;68.37;101514.81;5074647;28;20100;-46
2022/08/13 04:56:01;;;;;;;10.95;7.68;;;;;;;14.44;68.48;101513.09;5075553;28;20020;-45
2022/08/13 04:58:35;;;;;;;14.73;8.95;;;;;;;14.39;68.71;101510.38;5075067;28;20086;-47
2022/08/13 05:01:09;;;;;;;11.32;8.00;;;;;;;14.49;67.96;101514.97;5074561;28;20074;-48
2022/08/13 05:03:38;;;;;;;12.65;8.43;;;;;;;14.48;68.55;101520.13;5075492;28;20029;-46
2022/08/13 05:06:05;;;;;;;11.88;8.02;;;;;;;14.53;68.77;101512.47;5075298;28;20028;-46
2022/08/13 05:08:31;;;;;;;12.55;7.80;;;;;;;14.61;68.87;101518.69;5074239;28;20485;-49
2022/08/13 05:10:57;;;;;;;10.40;7.95;;;;;;;14.52;69.00;101516.75;5075199;28;20104;-44
2022/08/13 05:13:31;;;;;;;11.57;8.70;;;;;;;14.50;69.52;101518.44;5074821;28;20116;-46
2022/08/13 05:15:59;;;;;;;13.35;8.23;;;;;;;14.54;69.22;101514.19;5074297;28;20478;-44
2022/08/13 05:18:26;;;;;;;13.48;8.68;;;;;;;14.64;69.07;101521.38;5074973;28;20074;-45
2022/08/13 05:20:55;;;;;;;9.38;8.35;;;;;;;14.67;69.47;101518.88;5074330;28;20039;-44
2022/08/13 05:23:22;;;;;;;12.60;8.85;;;;;;;14.68;69.46;101514.56;5074610;28;20094;-46
2022/08/13 05:25:48;;;;;;;9.80;8.05;;;;;;;14.73;70.12;101516.44;5074877;28;20021;-45
2022/08/13 05:28:15;;;;;;;12.38;8.85;;;;;;;14.78;71.14;101519.13;5073710;28;20039;-45
2022/08/13 05:30:40;;;;;;;10.40;7.82;;;;;;;14.79;71.02;101516.56;5074921;28;20031;-44
2022/08/13 05:33:13;;;;;;;12.30;8.38;;;;;;;14.91;70.48;101536.75;5074856;28;20021;-46
2022/08/13 05:35:39;;;;;;;11.88;8.65;;;;;;;15.02;69.58;101521.41;5074069;28;20023;-45
2022/08/13 05:38:04;;;;;;;12.15;8.57;;;;;;;15.13;69.33;101522.50;5074752;28;20096;-44
2022/08/13 05:40:30;;;;;;;13.13;8.82;;;;;;;15.19;69.37;101520.91;5073294;28;20104;-44
2022/08/13 05:42:59;;;;;;;11.18;7.97;;;;;;;15.33;68.47;101519.47;5073836;28;20028;-45
2022/08/13 05:45:25;;;;;;;11.73;8.43;;;;;;;15.45;68.28;101527.50;5074195;28;20050;-44
2022/08/13 05:47:51;;;;;;;14.80;8.35;;;;;;;15.53;68.39;101513.78;5074369;28;20033;-46
2022/08/13 05:50:16;;;;;;;11.43;7.93;;;;;;;15.64;67.75;101509.69;5073387;28;20413;-46
2022/08/13 05:52:42;;;;;;;14.57;8.57;;;;;;;15.72;67.74;101513.28;5074345;28;20024;-46
2022/08/13 05:55:11;;;;;;;14.15;8.23;;;;;;;15.86;67.52;101516.19;5074012;28;20021;-45
2022/08/13 05:57:36;;;;;;;10.43;7.82;;;;;;;15.94;68.03;101514.59;5073647;28;20027;-47
2022/08/13 06:05:31;;;;;;;12.15;8.70;;;;;;;16.50;66.44;101514.66;5074377;28;20533;-45
2022/08/13 06:07:57;;;;;;;11.88;8.57;;;;;;;16.67;64.75;101521.00;5073886;28;20021;-44
2022/08/13 06:10:24;;;;;;;12.73;7.43;;;;;;;16.75;65.57;101523.72;5073187;28;20086;-46
2022/08/13 06:12:49;;;;;;;11.15;7.93;;;;;;;16.87;64.33;101515.22;5074003;28;20025;-45
2022/08/13 06:15:14;;;;;;;11.07;8.63;;;;;;;16.98;63.92;101512.78;5073506;28;20086;-45
2022/08/13 06:17:41;;;;;;;12.77;8.23;;;;;;;17.15;63.05;101515.66;5072967;28;20452;-45
2022/08/13 06:20:07;;;;;;;9.50;7.88;;;;;;;17.32;61.71;101514.13;5073585;28;20025;-45
2022/08/13 06:22:33;;;;;;;10.43;7.78;;;;;;;17.48;61.81;101514.28;5073412;28;20460;-44
2022/08/13 06:25:02;;;;;;;12.02;7.72;;;;;;;17.60;61.61;101511.84;5073114;28;20020;-44
2022/08/13 06:27:28;;;;;;;10.48;7.32;;;;;;;17.65;63.20;101517.97;5073664;28;20114;-47
2022/08/13 06:29:57;;;;;;;8.60;7.53;;;;;;;17.73;61.63;101516.31;5073704;28;20028;-44
2022/08/13 06:32:23;;;;;;;14.35;7.57;;;;;;;17.87;61.60;101519.06;5072639;28;20437;-45
2022/08/13 06:34:49;;;;;;;9.25;6.82;;;;;;;18.07;59.38;101521.91;5073445;28;20055;-46
2022/08/13 06:37:15;;;;;;;10.25;7.10;;;;;;;18.22;59.68;101521.16;5073417;28;20479;-45
2022/08/13 06:39:44;;;;;;;10.88;7.35;;;;;;;18.35;58.70;101522.16;5072638;28;20372;-44
2022/08/13 06:42:10;;;;;;;11.55;7.15;;;;;;;18.46;58.21;101519.63;5073011;28;20376;-46
2022/08/13 06:44:39;;;;;;;10.40;7.07;;;;;;;18.55;58.49;101529.25;5073133;28;20031;-44
2022/08/13 06:47:05;;;;;;;10.52;7.35;;;;;;;18.64;57.74;101528.47;5072608;28;20032;-47
2022/08/13 06:49:32;;;;;;;12.50;6.57;;;;;;;18.79;58.85;101527.69;5073348;28;20051;-45
2022/08/13 06:51:58;;;;;;;8.25;6.40;;;;;;;18.92;58.27;101519.94;5073197;28;20029;-45
2022/08/13 06:54:24;;;;;;;10.00;6.80;;;;;;;19.00;57.53;101527.84;5072326;28;20020;-45
2022/08/13 06:56:51;;;;;;;8.90;6.72;;;;;;;19.12;56.91;101526.16;5073362;28;20025;-49
2022/08/13 06:59:19;;;;;;;;;;;;;;;19.14;57.35;101521.81;5072618;28;20029;-46
2022/08/13 07:01:46;;;;;;;15.98;6.68;;;;;;;19.50;56.79;101523.72;5073167;28;19997;-47
2022/08/13 07:04:18;;;;;;;12.95;6.35;;;;;;;19.59;56.38;101525.47;5072688;28;20028;-46
2022/08/13 07:06:47;;;;;;;12.55;6.50;;;;;;;19.63;55.91;101524.63;5072516;28;20031;-49
2022/08/13 07:09:12;;;;;;;11.88;6.18;;;;;;;19.81;55.59;101526.41;5072795;28;20028;-45
2022/08/13 07:11:40;;;;;;;11.10;6.18;;;;;;;19.95;55.56;101529.09;5072908;28;20150;-44
2022/08/13 07:14:05;;;;;;;;;;;;;;;19.98;54.95;101531.69;5072618;28;20146;-45
2022/08/13 07:16:32;;;;;;;10.17;6.20;;;;;;;20.28;53.05;101532.59;5073041;28;19999;-50
2022/08/13 07:18:59;;;;;;;8.45;5.57;;;;;;;20.53;51.88;101535.22;5073172;28;20428;-47
2022/08/13 07:21:26;;;;;;;10.32;6.05;;;;;;;20.63;50.87;101536.97;5072087;28;20051;-48
2022/08/13 07:23:53;;;;;;;9.53;6.13;;;;;;;20.79;50.84;101542.22;5072831;28;20028;-48
2022/08/13 07:26:21;;;;;;;10.25;6.20;;;;;;;20.86;50.29;101538.69;5072604;28;20129;-45
2022/08/13 07:28:49;;;;;;;9.93;5.90;;;;;;;21.02;50.27;101534.31;5071865;28;20031;-48
2022/08/13 07:31:22;;;;;;;9.07;5.65;;;;;;;21.11;49.80;101533.38;5072649;28;20025;-47
2022/08/13 07:33:51;;;;;;;9.23;5.32;;;;;;;21.28;49.81;101531.56;5072508;28;20044;-46
2022/08/13 07:36:19;;;;;;;11.18;6.70;;;;;;;21.38;49.24;101532.38;5071725;28;20063;-50
2022/08/13 07:38:45;;;;;;;;;;;;;;;21.45;51.01;101533.25;5073138;28;20044;-45
2022/08/13 07:41:11;;;;;;;10.52;5.53;;;;;;;21.53;50.92;101527.06;5072439;28;19962;-48
2022/08/13 07:43:39;;;;;;;9.13;5.65;;;;;;;21.61;50.63;101534.06;5071771;28;20050;-47
2022/08/13 07:46:10;;;;;;;10.45;5.57;;;;;;;22.00;50.18;101538.22;5072406;28;20051;-44
2022/08/13 07:48:37;;;;;;;10.68;5.35;;;;;;;22.07;48.55;101539.03;5071961;28;20024;-45
2022/08/13 07:51:05;;;;;;;10.10;5.30;;;;;;;22.19;49.56;101540.69;5072613;28;20039;-46
2022/08/13 07:53:31;;;;;;;;;;;;;;;22.23;50.22;101545.03;5072617;28;20024;-46
2022/08/13 07:55:57;;;;;;;10.02;4.95;;;;;;;22.42;46.75;101530.03;5071726;28;20348;-50
2022/08/13 07:58:27;;;;;;;12.75;5.18;;;;;;;22.49;45.62;101542.25;5072260;28;20082;-47
2022/08/13 08:00:57;;;;;;;11.75;4.50;;;;;;;22.84;45.29;101540.16;5072641;28;20056;-44
2022/08/13 08:03:25;;;;;;;8.60;3.80;;;;;;;22.82;44.71;101539.28;5071469;28;20031;-49
2022/08/13 08:05:52;;;;;;;13.52;4.50;;;;;;;22.94;43.77;101539.13;5076088;28;20029;-47
2022/08/13 08:08:17;;;;;;;10.67;3.93;;;;;;;23.12;44.14;101545.94;5075960;28;20476;-49
2022/08/13 08:10:45;;;;;;;12.48;3.50;;;;;;;23.20;42.80;101539.78;5075413;28;20032;-45
2022/08/13 08:13:13;;;;;;;11.55;4.25;;;;;;;23.54;43.13;101539.34;5076161;28;20028;-52
2022/08/13 08:15:44;;;;;;;9.98;3.33;;;;;;;23.70;41.96;101537.38;5076110;28;20464;-50
2022/08/13 08:18:09;;;;;;;8.93;3.58;;;;;;;23.78;42.12;101538.13;5075121;28;20407;-47
2022/08/13 08:20:34;;;;;;;7.05;3.70;;;;;;;23.84;42.98;101543.31;5076118;28;20537;-47
2022/08/13 08:23:00;;;;;;;7.88;3.63;;;;;;;24.04;42.00;101544.78;5075821;28;20100;-46
2022/08/13 08:25:26;;;;;;;10.48;4.13;;;;;;;24.18;42.04;101545.44;5074861;28;20020;-46
2022/08/13 08:27:51;;;;;;;9.75;3.28;;;;;;;24.23;40.70;101545.38;5075945;28;20403;-48
2022/08/13 08:30:18;;;;;;;9.82;3.97;;;;;;;24.47;41.55;101549.38;5075770;28;20032;-50
2022/08/13 08:32:53;;;;;;;8.68;3.42;;;;;;;24.57;39.68;101543.03;5075009;28;20067;-49
2022/08/13 08:35:22;;;;;;;9.05;2.65;;;;;;;24.61;38.31;101539.44;5075375;28;20464;-47
2022/08/13 08:43:35;;;;;;;7.97;3.22;;;;;;;24.99;39.91;101545.78;5075661;28;20036;-47
2022/08/13 08:46:03;;;;;;;8.05;3.05;;;;;;;25.32;38.94;101545.16;5074567;28;20036;-47
2022/08/13 08:48:30;;;;;;;8.88;3.00;;;;;;;25.39;38.20;101543.28;5075344;28;20103;-49
2022/08/13 08:50:56;;;;;;;4.95;2.67;;;;;;;25.50;38.91;101541.28;5075474;28;20353;-51
2022/08/13 08:53:24;;;;;;;11.23;2.88;;;;;;;25.61;38.99;101541.91;5074364;28;20012;-50
2022/08/13 08:55:51;;;;;;;7.57;2.70;;;;;;;25.72;37.15;101546.06;5075567;28;20032;-51
2022/08/13 08:58:21;;;;;;;7.05;2.50;;;;;;;26.05;37.93;101554.16;5075158;28;20031;-49
2022/08/13 09:00:48;;;;;;;6.50;2.75;;;;;;;26.13;38.71;101545.13;5074553;28;20021;-50
2022/08/13 09:03:18;;;;;;;6.28;2.60;;;;;;;26.12;37.10;101542.53;5075333;28;20048;-47
2022/08/13 09:05:45;;;;;;;9.48;2.30;;;;;;;26.29;37.63;101537.69;5075418;28;20032;-51
2022/08/13 09:08:17;;;;;;;8.93;2.83;;;;;;;26.37;37.05;101536.63;5074297;28;20036;-50
2022/08/13 09:10:45;;;;;;;7.05;2.58;;;;;;;26.45;37.28;101537.28;5075190;28;20564;-50
2022/08/13 09:13:12;;;;;;;9.18;2.42;;;;;;;26.61;37.22;101538.63;5074150;28;20070;-52
2022/08/13 09:15:39;;;;;;;10.73;2.75;;;;;;;26.70;36.03;101534.00;5075237;28;20074;-51
2022/08/13 09:18:05;;;;;;;8.88;2.38;;;;;;;26.88;36.58;101536.19;5075096;28;20040;-52
2022/08/13 09:20:33;;;;;;;8.73;2.70;;;;;;;27.05;36.63;101533.06;5073956;28;20026;-52
2022/08/13 09:23:04;;;;;;;6.28;2.35;;;;;;;27.30;35.25;101529.69;5074967;28;20502;-52
2022/08/13 09:25:30;;;;;;;5.45;2.30;;;;;;;27.34;35.10;101523.38;5074620;28;20047;-50
2022/08/13 09:27:56;;;;;;;7.90;2.67;;;;;;;27.59;35.25;101528.84;5074010;28;20031;-53
2022/08/13 09:30:23;;;;;;;4.60;2.00;;;;;;;27.80;34.77;101531.72;5074624;28;20021;-51
2022/08/13 09:32:52;;;;;;;7.55;2.00;;;;;;;27.82;33.48;101527.22;5074912;28;20029;-52
2022/08/13 09:35:17;;;;;;;10.95;2.67;;;;;;;28.16;33.92;101528.81;5073683;28;20054;-51
2022/08/13 09:37:43;;;;;;;7.15;2.17;;;;;;;28.21;33.72;101529.53;5074631;28;20056;-52
2022/08/13 09:40:11;;;;;;;4.68;2.00;;;;;;;28.22;31.46;101536.53;5074407;28;20450;-49
2022/08/13 09:43:07;;;;;;;6.57;2.10;;;;;;;28.35;32.68;101528.19;5073948;28;20040;-50
2022/08/13 09:45:35;;;;;;;8.18;2.25;;;;;;;28.52;31.83;101527.59;5052317;28;20094;-52
2022/08/13 09:48:02;;;;;;;3.90;1.80;;;;;;;28.68;31.68;101525.31;5074380;28;20456;-52
2022/08/13 09:50:28;;;;;;;5.20;1.65;;;;;;;28.84;29.35;101513.22;5073764;28;20103;-52
2022/08/13 09:52:56;;;;;;;6.70;2.08;;;;;;;29.14;30.30;101518.31;5074563;28;20048;-52
2022/08/13 09:55:25;;;;;;;4.95;2.00;;;;;;;29.64;30.50;101519.09;5073542;28;20032;-53
2022/08/13 09:57:58;;;;;;;7.97;1.83;;;;;;;29.96;27.29;101514.28;5074285;28;20040;-48
2022/08/13 10:00:25;;;;;;;5.05;1.58;;;;;;;30.28;27.87;101514.69;5074026;28;20052;-48
2022/08/13 10:02:56;;;;;;;6.55;1.58;;;;;;;30.74;26.76;101518.03;5073349;28;20361;-48
2022/08/13 10:05:23;;;;;;;3.95;1.50;;;;;;;31.25;26.19;101506.91;5073855;28;20098;-53
2022/08/13 10:07:48;;;;;;;3.83;1.52;;;;;;;31.17;25.96;101509.94;5074117;28;20038;-49
2022/08/13 10:10:14;;;;;;;3.15;1.40;;;;;;;31.50;25.02;101501.25;5072874;28;20017;-51
2022/08/13 10:12:41;;;;;;;4.25;1.40;;;;;;;32.09;24.57;101501.06;5074220;28;20060;-50
2022/08/13 10:15:08;;;;;;;8.10;1.85;;;;;;;32.18;24.14;101504.13;5073820;28;20020;-49
2022/08/13 10:17:59;;;;;;;3.30;1.30;;;;;;;32.59;24.21;101502.06;5073109;28;20043;-50
2022/08/13 10:20:33;;;;;;;2.15;1.30;;;;;;;32.92;22.83;101495.88;5073661;28;20027;-51
2022/08/13 10:23:01;;;;;;;3.63;1.48;;;;;;;34.18;21.63;101500.34;5073976;28;20103;-52
2022/08/13 10:25:28;;;;;;;4.78;1.35;;;;;;;34.39;20.78;101493.72;5072700;28;20112;-52
2022/08/13 10:27:54;;;;;;;2.55;1.30;;;;;;;34.89;20.47;101501.44;5073104;28;20035;-51
2022/08/13 10:30:24;;;;;;;2.00;0.83;;;;;;;35.18;18.53;101494.19;5072586;28;20033;-52
2022/08/13 10:32:49;;;;;;;1.95;0.82;;;;;;;35.46;18.33;101492.41;5073826;28;20481;-53
2022/08/13 10:35:17;;;;;;;2.90;1.20;;;;;;;35.57;18.33;101486.34;5073449;28;20052;-51
2022/08/13 10:37:45;;;;;;;4.50;1.00;;;;;;;35.60;18.87;101484.31;5072684;28;20487;-52
2022/08/13 10:40:14;;;;;;;4.35;1.35;;;;;;;36.14;18.07;101489.72;5073259;28;20024;-50
2022/08/13 10:42:39;;;;;;;4.30;1.20;;;;;;;36.97;18.21;101475.00;5073275;28;20025;-51
2022/08/13 10:45:05;;;;;;;3.47;1.30;;;;;;;37.27;17.92;101484.47;5072311;28;20178;-50
2022/08/13 10:47:31;;;;;;;4.20;1.17;;;;;;;37.19;17.08;101485.03;5073343;28;20020;-50
2022/08/13 10:49:58;;;;;;;8.87;1.50;;;;;;;37.94;16.93;101481.25;5073342;28;20395;-51
2022/08/13 10:52:24;;;;;;;3.60;1.25;;;;;;;38.05;17.67;101481.28;5072301;28;20125;-52
2022/08/13 10:54:49;;;;;;;5.97;1.33;;;;;;;38.69;17.22;101479.88;5073207;28;20414;-53
2022/08/13 10:57:15;;;;;;;4.27;1.20;;;;;;;38.68;17.09;101485.38;5072846;28;20028;-51
2022/08/13 10:59:43;;;;;;;2.87;1.30;;;;;;;38.76;16.08;101480.25;5072596;28;20025;-51
2022/08/13 11:02:09;;;;;;;3.78;1.13;;;;;;;39.13;16.00;101474.56;5073108;28;20024;-52
2022/08/13 11:04:36;;;;;;;4.82;1.20;;;;;;;39.78;14.79;101471.03;5073186;28;20028;-52
2022/08/13 11:07:02;;;;;;;4.07;1.00;;;;;;;39.31;15.08;101474.91;5072369;28;20055;-52
2022/08/13 11:09:28;;;;;;;2.95;1.10;;;;;;;39.21;15.76;101478.50;5072634;28;20455;-51
2022/08/13 11:11:55;;;;;;;1.83;0.90;;;;;;;38.54;15.44;101475.72;5072999;28;20052;-50
2022/08/13 11:14:21;;;;;;;4.35;1.20;;;;;;;38.90;15.22;101476.44;5072114;28;20009;-51
2022/08/13 11:19:15;;;;;;;3.13;1.07;;;;;;;39.44;15.37;101471.19;5072833;28;20041;-49
2022/08/13 11:21:44;;;;;;;2.03;0.90;;;;;;;39.83;15.95;101474.22;5072310;28;20024;-51
2022/08/13 11:24:11;;;;;;;3.17;1.15;;;;;;;40.22;15.40;101471.78;5072519;28;20025;-50
2022/08/13 11:26:37;;;;;;;3.33;1.00;;;;;;;39.92;14.56;101462.63;5072208;28;20103;-51
2022/08/13 11:29:03;;;;;;;4.10;1.08;;;;;;;40.22;14.58;101463.69;5072854;28;20052;-51
2022/08/13 11:31:28;;;;;;;3.47;1.05;;;;;;;40.52;14.81;101453.00;5072535;28;20451;-52
2022/08/13 11:33:54;;;;;;;2.23;0.80;;;;;;;40.32;14.09;101443.00;5072006;28;20499;-52
2022/08/13 11:36:19;;;;;;;2.50;0.83;;;;;;;40.10;14.38;101454.78;5072414;28;20536;-52
2022/08/13 11:38:44;;;;;;;3.33;0.90;;;;;;;40.24;14.65;101442.78;5073017;28;20029;-51
2022/08/13 11:41:10;;;;;;;3.37;1.10;;;;;;;40.49;13.95;101454.13;5075922;28;20024;-52
2022/08/13 11:43:36;;;;;;;2.35;1.10;;;;;;;40.05;14.12;101442.66;5077075;28;20021;-51
2022/08/13 11:46:01;;;;;;;1.40;1.02;;;;;;;40.02;15.05;101449.19;5076685;28;20072;-51
2022/08/13 11:48:26;;;;;;;3.43;1.00;;;;;;;40.11;13.98;101439.47;5075827;28;20086;-51
2022/08/13 11:50:52;;;;;;;5.80;1.30;;;;;;;40.16;14.91;101442.63;5077018;28;20059;-52